Latest Observation

42 Stations

15 Minute Data | America/Los_Angeles
as of 5/7/26 3:47 PM PDT
Station Date Time Temp (°F) RH (%) Dew Pt (°F) Wind Spd (mph) Wind Dir (°) Wind Gust (mph) Latest Rain (In) Daily Rain (In) Daily Min Temp (°F) Daily Max Temp (°F) Daily Max Wind (mph)
Elk Mt. Farm 5/7/26 1545 82.4   6.2 - - - - - - - 44.8   9.1 83.0   5.5 -
Upper Lake 5/7/26 1545 81.8   4.9 42   9 56.4   0.9 4.0 SE | 146 9.9   1.7 0.00 0.00 44.6   8.7 82.5   5.0 11.7   0.2
Scotts Valley 5/7/26 1545 83.2   6.0 40   14 56.3   3.0 3.0 SW | 221 8.9   2.2 0.00 0.00 41.6   12.1 84.2   6.2 10.3   2.3
Scotts Valley-South (Bella Vista) 5/7/26 1545 81.3   4.8 36   12 51.9   3.7 6.4 SSW | 198 11.6   6.3 0.00 0.00 46.1   7.2 82.7   5.5 11.6   4.2
Kelseyville 5/7/26 1545 83.4   8.1 29   24 48.0   9.2 5.6 SW | 231 12.7   4.4 0.00 0.00 44.9   10.2 84.3   8.1 12.7   0.4
Kelseyville Remote 5/7/26 1545 82.8   6.9 25   23 43.3   11.4 - - - 0.00 0.00 46.2   9.5 83.9   7.6 -
Kelseyville (Clark Drive) 5/7/26 1545 83.4   6.6 - - - - - 0.00 0.00 45.7   9.9 84.7   7.0 -
Kelsey Bench (Oaklea) 5/7/26 1545 81.1   5.2 27   20 44.1   10.5 6.2 W | 275 10.4   3.1 0.00 0.00 48.3   5.3 81.5   4.6 13.3   2.2
Smith Lane (Kelseyville-South) 5/7/26 1545 82.9   3.8 30   18 48.0   9.5 6.3 W | 265 11.0   2.2 0.00 0.00 45.7   9.2 82.9   3.8 12.7   2.8
Bell Hill-West 5/7/26 1545 81.7   4.9 32   22 49.1   9.8 6.5 SW | 233 11.8   1.0 0.00 0.00 46.4   8.0 82.0   4.9 12.1   1.7
High Valley Ridgeline (Brassfield) 5/7/26 1545 78.5   6.5 27   27 41.9   12.9 8.6 WSW | 239 13.0   2.4 0.00 0.00 55.4   3.9 79.0   6.5 13.0   2.4
Wight Way (Adobe Creek) 5/7/26 1500 83.2   5.7 43   2 58.4   4.0 3.2 WNW | 286 9.8   1.2 0.00 0.00 43.9   10.1 84.2   6.1 13.4   2.9
Ridgeline Top (Brassfield) 5/7/26 1545 79.9   6.7 - - - - - - - 55.5   4.0 80.8   6.9 -
Ridgeline Low (Brassfield) 5/7/26 1545 79.2   7.0 - - - - - - - 52.2   1.1 79.6   6.9 -
Long Valley (Shannon) 5/7/26 1545 83.5   5.2 34   20 52.5   7.7 3.0 SSW | 210 11.9   3.6 0.00 0.00 46.1   10.4 84.1   5.8 11.9   2.1
High Valley Winery 5/7/26 1545 80.1   6.5 32   20 47.1   7.8 7.6 SW | 234 12.0   4.2 0.00 0.00 44.0   10.3 80.7   6.8 12.0   4.2
Round Mtn Rd. 5/7/26 1230 74.1   7.1 - - - - - - - 50.2   3.8 74.6   7.2 -
Circle O 5/7/26 1545 78.9   5.4 - - - - - - - 46.4   6.5 81.6   7.0 -
Robertsbridge Vineyards 5/7/26 1545 83.6   5.2 28   16 47.4   7.6 - - - - - 45.6   8.2 84.3   4.9 -
Urgency Vineyard 5/7/26 1545 81.7   4.8 36   11 52.3   2.9 3.8 W | 270 8.9   0.8 0.00 0.00 43.8   9.4 81.8   4.2 11.0   2.2
Red Hills (Beckstoffer) 5/7/26 1545 81.6   5.0 33   15 49.9   5.6 - - - 0.00 0.00 40.9   12.4 82.9   5.9 -
Winters (Shannon) 5/7/26 1545 78.4   4.0 46   2 55.7   2.3 1.9 ENE | 67 5.5   6.6 0.00 0.00 41.2   11.2 80.1   5.3 10.4   2.9
Secret Pond (Shannon) 5/7/26 1545 80.9   6.6 47   2 58.5   4.6 1.2 SE | 136 4.4   4.2 0.00 0.00 43.7   8.4 81.1   5.3 9.5   0.9
Rolling Knolls (Shannon) 5/7/26 1545 79.0   4.4 49   2 58.0   2.9 0.1 ENE | 58 1.8   4.2 0.00 0.00 45.1   9.1 81.6   6.1 6.1   1.2
Lower Lake 5/7/26 1545 80.5   6.3 46   3 57.8   3.7 1.6 NNE | 27 4.5   3.8 0.00 0.00 50.7   3.4 80.5   6.0 11.0   2.0
Adamson Ranch 5/7/26 1545 82.5   4.8 44   2 58.4   2.9 2.3 SE | 144 7.0   2.2 0.00 0.00 45.4   9.5 83.7   5.7 7.7   3.1
Middletown (Diamond D) 5/7/26 1545 78.5   3.8 55   5 60.8   1.2 4.7 WSW | 241 14.2   4.2 0.00 0.00 47.0   8.8 81.9   5.6 15.0   2.1
Middletown-West (Domaine Helena) 5/7/26 1545 77.1   2.0 57   7 60.8   1.3 12.3 SW | 216 18.8   7.3 0.00 0.00 42.8   11.3 80.8   5.2 18.8   5.7
Middletown-South 5/7/26 1545 77.5   2.5 51   4 57.8   0.1 7.6 SW | 234 16.7   4.5 0.00 0.00 47.4   7.4 81.5   5.8 16.7   4.5
Jim Davis (Langtry) 5/7/26 1545 80.5   5.5 50   6 59.9   1.9 5.8 ESE | 115 11.1   0.2 0.00 0.00 50.4   5.0 81.0   5.8 15.1   4.2
Napa Valley Basin 5/7/26 1545 81.7   5.2 52   3 62.5   3.1 6.2 SSW | 205 11.0   4.5 0.00 0.00 47.6   8.6 82.7   5.5 11.2   1.5
Lower Bohn 5/7/26 1545 81.1   3.6 55   2 63.5   2.6 5.4 SSW | 208 10.4   4.4 0.00 0.00 43.7   10.1 82.0   3.0 12.3   1.1
Upper Bohn-North 5/7/26 1545 81.7   4.2 47   3 59.5   2.0 3.6 SSE | 155 9.5   1.4 0.00 0.00 49.8   5.7 82.8   4.0 13.5   4.5
Snell Peak Blk#9 5/7/26 1545 81.2   4.7 49   1 60.0   5.0 4.4 S | 178 8.3   3.2 0.00 0.00 51.7   3.6 81.8   3.4 13.1   5.9
Coyote Lake West 5/7/26 1545 80.3   3.5 51   4 60.5   1.1 3.8 SSE | 150 9.6   3.9 0.00 0.00 50.8   5.3 81.1   4.3 11.8   2.9
Coyote Lake Northeast 5/7/26 1545 81.7   5.7 53   2 62.7   4.1 - - - - - 51.8   4.4 82.3   6.1 -
Coyote Lake East 5/7/26 1545 81.6   5.1 53   3 62.8   3.1 - - - - - 48.3   8.5 82.3   5.5 -
Morgan Valley 5/7/26 1545 76.3   4.6 55   2 59.1   3.2 5.6 SSW | 198 10.4   1.4 0.00 0.00 55.5   4.5 76.5   4.4 11.8   0.0
Mine Pit North 5/7/26 1545 78.4   5.4 54   7 60.5   1.8 5.9 SSW | 194 14.5   3.0 - - 52.7   0.6 79.6   5.7 14.5   3.0
Mine Pit South 5/7/26 1545 78.6   5.6 48   5 57.0   2.2 6.2 SSE | 149 12.7   3.7 0.00 0.00 55.1   3.8 79.5   5.1 15.6   3.4
Cow Mountain 5/7/26 1545 69.0   4.2 - - 12.5 WSW | 255 19.7   2.0 0.00 0.00 55.1   7.7 71.0   5.1 22.1   1.8
Ukiah-SE (Ruddick) 5/7/26 1545 85.0   5.6 34   10 53.7   2.0 4.7 W | 260 8.6   4.0 0.00 0.00 46.9   7.6 85.4   4.4 12.1   1.2
Max     85.0 57 63.5 12.5 - 19.7 0.00 0.00 55.5 85.4 22.1
Avg     80.6 43 55.3 5.2 - 10.7 0.00 - - - -
Min     69.0 25 41.9 0.1 - 1.8 0.00 0.00 40.9 71.0 6.1